sensor_id;sensor_type;location;lat;lon;timestamp;P1;durP1;ratioP1;P2;durP2;ratioP2
11955;SDS011;6038;52.276;10.530;2023-05-27T00:00:30;13.87;;;4.37;;
11955;SDS011;6038;52.276;10.530;2023-05-27T00:02:58;10.93;;;4.53;;
11955;SDS011;6038;52.276;10.530;2023-05-27T00:05:25;9.77;;;4.30;;
11955;SDS011;6038;52.276;10.530;2023-05-27T00:07:51;11.47;;;4.37;;
11955;SDS011;6038;52.276;10.530;2023-05-27T00:10:17;7.83;;;4.20;;
11955;SDS011;6038;52.276;10.530;2023-05-27T00:12:43;13.17;;;5.00;;
11955;SDS011;6038;52.276;10.530;2023-05-27T00:15:09;10.90;;;4.40;;
11955;SDS011;6038;52.276;10.530;2023-05-27T00:17:36;10.83;;;4.60;;
11955;SDS011;6038;52.276;10.530;2023-05-27T00:20:04;13.43;;;4.50;;
11955;SDS011;6038;52.276;10.530;2023-05-27T00:22:33;15.50;;;4.93;;
11955;SDS011;6038;52.276;10.530;2023-05-27T00:25:02;10.63;;;4.70;;
11955;SDS011;6038;52.276;10.530;2023-05-27T00:27:28;11.33;;;4.30;;
11955;SDS011;6038;52.276;10.530;2023-05-27T00:29:54;9.53;;;4.20;;
11955;SDS011;6038;52.276;10.530;2023-05-27T00:32:20;9.93;;;4.40;;
11955;SDS011;6038;52.276;10.530;2023-05-27T00:34:46;9.80;;;4.47;;
11955;SDS011;6038;52.276;10.530;2023-05-27T00:37:12;9.17;;;4.17;;
11955;SDS011;6038;52.276;10.530;2023-05-27T00:39:39;14.83;;;4.83;;
11955;SDS011;6038;52.276;10.530;2023-05-27T00:42:05;10.90;;;4.50;;
11955;SDS011;6038;52.276;10.530;2023-05-27T00:44:32;10.33;;;4.23;;
11955;SDS011;6038;52.276;10.530;2023-05-27T00:46:58;10.73;;;4.27;;
11955;SDS011;6038;52.276;10.530;2023-05-27T00:49:25;9.07;;;4.40;;
11955;SDS011;6038;52.276;10.530;2023-05-27T00:51:51;17.33;;;4.80;;
11955;SDS011;6038;52.276;10.530;2023-05-27T00:54:17;11.90;;;4.70;;
11955;SDS011;6038;52.276;10.530;2023-05-27T00:56:44;11.97;;;4.67;;
11955;SDS011;6038;52.276;10.530;2023-05-27T00:59:10;14.80;;;5.00;;
11955;SDS011;6038;52.276;10.530;2023-05-27T01:01:36;9.67;;;4.93;;
11955;SDS011;6038;52.276;10.530;2023-05-27T01:04:03;12.37;;;5.00;;
11955;SDS011;6038;52.276;10.530;2023-05-27T01:09:13;10.53;;;4.10;;
11955;SDS011;6038;52.276;10.530;2023-05-27T01:14:44;8.93;;;4.50;;
11955;SDS011;6038;52.276;10.530;2023-05-27T01:17:11;10.17;;;4.57;;
11955;SDS011;6038;52.276;10.530;2023-05-27T01:19:39;10.20;;;4.87;;
11955;SDS011;6038;52.276;10.530;2023-05-27T01:22:13;10.97;;;4.90;;
11955;SDS011;6038;52.276;10.530;2023-05-27T01:24:39;14.47;;;4.77;;
11955;SDS011;6038;52.276;10.530;2023-05-27T01:27:06;12.57;;;4.67;;
11955;SDS011;6038;52.276;10.530;2023-05-27T01:29:33;11.70;;;4.80;;
11955;SDS011;6038;52.276;10.530;2023-05-27T01:34:34;12.27;;;4.63;;
11955;SDS011;6038;52.276;10.530;2023-05-27T01:37:02;10.20;;;4.50;;
11955;SDS011;6038;52.276;10.530;2023-05-27T01:39:30;10.03;;;4.60;;
11955;SDS011;6038;52.276;10.530;2023-05-27T01:41:57;13.37;;;4.60;;
11955;SDS011;6038;52.276;10.530;2023-05-27T01:44:23;10.00;;;4.40;;
11955;SDS011;6038;52.276;10.530;2023-05-27T01:46:49;12.53;;;4.90;;
11955;SDS011;6038;52.276;10.530;2023-05-27T01:49:15;10.83;;;4.63;;
11955;SDS011;6038;52.276;10.530;2023-05-27T01:51:41;12.73;;;4.90;;
11955;SDS011;6038;52.276;10.530;2023-05-27T01:54:07;18.20;;;4.80;;
11955;SDS011;6038;52.276;10.530;2023-05-27T01:56:33;17.70;;;5.67;;
11955;SDS011;6038;52.276;10.530;2023-05-27T01:58:59;11.23;;;4.97;;
11955;SDS011;6038;52.276;10.530;2023-05-27T02:01:25;12.43;;;4.60;;
11955;SDS011;6038;52.276;10.530;2023-05-27T02:03:53;10.57;;;4.63;;
11955;SDS011;6038;52.276;10.530;2023-05-27T02:06:20;12.67;;;5.03;;
11955;SDS011;6038;52.276;10.530;2023-05-27T02:08:46;14.60;;;5.03;;
11955;SDS011;6038;52.276;10.530;2023-05-27T02:11:12;15.50;;;5.33;;
11955;SDS011;6038;52.276;10.530;2023-05-27T02:13:38;12.80;;;5.57;;
11955;SDS011;6038;52.276;10.530;2023-05-27T02:16:06;9.60;;;4.50;;
11955;SDS011;6038;52.276;10.530;2023-05-27T02:18:32;14.50;;;5.70;;
11955;SDS011;6038;52.276;10.530;2023-05-27T02:20:58;14.37;;;4.80;;
11955;SDS011;6038;52.276;10.530;2023-05-27T02:23:30;14.53;;;5.13;;
11955;SDS011;6038;52.276;10.530;2023-05-27T02:25:56;12.50;;;4.60;;
11955;SDS011;6038;52.276;10.530;2023-05-27T02:28:22;17.10;;;4.73;;
11955;SDS011;6038;52.276;10.530;2023-05-27T02:30:48;11.13;;;5.13;;
11955;SDS011;6038;52.276;10.530;2023-05-27T02:33:14;12.87;;;5.20;;
11955;SDS011;6038;52.276;10.530;2023-05-27T02:35:40;10.47;;;4.77;;
11955;SDS011;6038;52.276;10.530;2023-05-27T02:38:06;7.87;;;4.80;;
11955;SDS011;6038;52.276;10.530;2023-05-27T02:40:32;12.53;;;4.83;;
11955;SDS011;6038;52.276;10.530;2023-05-27T02:42:58;15.33;;;4.60;;
11955;SDS011;6038;52.276;10.530;2023-05-27T02:45:24;11.97;;;4.93;;
11955;SDS011;6038;52.276;10.530;2023-05-27T02:47:51;11.03;;;5.07;;
11955;SDS011;6038;52.276;10.530;2023-05-27T02:50:17;9.57;;;5.13;;
11955;SDS011;6038;52.276;10.530;2023-05-27T02:52:43;15.00;;;5.50;;
11955;SDS011;6038;52.276;10.530;2023-05-27T02:55:09;14.23;;;5.37;;
11955;SDS011;6038;52.276;10.530;2023-05-27T02:57:35;9.87;;;4.93;;
11955;SDS011;6038;52.276;10.530;2023-05-27T03:00:01;15.00;;;5.30;;
11955;SDS011;6038;52.276;10.530;2023-05-27T03:02:27;12.97;;;5.03;;
11955;SDS011;6038;52.276;10.530;2023-05-27T03:04:53;18.63;;;5.97;;
11955;SDS011;6038;52.276;10.530;2023-05-27T03:07:20;16.90;;;5.53;;
11955;SDS011;6038;52.276;10.530;2023-05-27T03:09:46;13.47;;;5.13;;
11955;SDS011;6038;52.276;10.530;2023-05-27T03:12:12;10.57;;;5.73;;
11955;SDS011;6038;52.276;10.530;2023-05-27T03:14:38;10.27;;;5.40;;
11955;SDS011;6038;52.276;10.530;2023-05-27T03:17:04;14.33;;;5.43;;
11955;SDS011;6038;52.276;10.530;2023-05-27T03:19:30;15.20;;;5.77;;
11955;SDS011;6038;52.276;10.530;2023-05-27T03:21:56;11.40;;;5.57;;
11955;SDS011;6038;52.276;10.530;2023-05-27T03:24:22;14.23;;;5.20;;
11955;SDS011;6038;52.276;10.530;2023-05-27T03:26:48;12.13;;;5.00;;
11955;SDS011;6038;52.276;10.530;2023-05-27T03:29:14;10.30;;;5.27;;
11955;SDS011;6038;52.276;10.530;2023-05-27T03:31:40;8.10;;;4.87;;
11955;SDS011;6038;52.276;10.530;2023-05-27T03:34:06;13.97;;;4.83;;
11955;SDS011;6038;52.276;10.530;2023-05-27T03:36:32;11.63;;;5.17;;
11955;SDS011;6038;52.276;10.530;2023-05-27T03:39:00;11.57;;;5.17;;
11955;SDS011;6038;52.276;10.530;2023-05-27T03:41:26;10.47;;;5.17;;
11955;SDS011;6038;52.276;10.530;2023-05-27T03:43:52;11.23;;;4.77;;
11955;SDS011;6038;52.276;10.530;2023-05-27T03:46:18;9.80;;;5.47;;
11955;SDS011;6038;52.276;10.530;2023-05-27T03:48:44;11.67;;;5.53;;
11955;SDS011;6038;52.276;10.530;2023-05-27T03:51:10;12.63;;;4.97;;
11955;SDS011;6038;52.276;10.530;2023-05-27T03:53:36;11.73;;;5.30;;
11955;SDS011;6038;52.276;10.530;2023-05-27T03:56:02;13.63;;;5.43;;
11955;SDS011;6038;52.276;10.530;2023-05-27T03:58:28;12.07;;;5.47;;
11955;SDS011;6038;52.276;10.530;2023-05-27T04:00:54;13.20;;;5.07;;
11955;SDS011;6038;52.276;10.530;2023-05-27T04:03:20;10.77;;;5.40;;
11955;SDS011;6038;52.276;10.530;2023-05-27T04:05:46;13.67;;;5.40;;
11955;SDS011;6038;52.276;10.530;2023-05-27T04:08:12;16.33;;;5.60;;
11955;SDS011;6038;52.276;10.530;2023-05-27T04:10:39;10.33;;;5.77;;
11955;SDS011;6038;52.276;10.530;2023-05-27T04:13:05;9.10;;;5.30;;
11955;SDS011;6038;52.276;10.530;2023-05-27T04:15:31;15.80;;;6.10;;
11955;SDS011;6038;52.276;10.530;2023-05-27T04:17:59;11.40;;;5.57;;
11955;SDS011;6038;52.276;10.530;2023-05-27T04:20:26;16.10;;;5.63;;
11955;SDS011;6038;52.276;10.530;2023-05-27T04:22:52;13.63;;;6.07;;
11955;SDS011;6038;52.276;10.530;2023-05-27T04:25:18;19.07;;;6.47;;
11955;SDS011;6038;52.276;10.530;2023-05-27T04:27:44;15.40;;;5.87;;
11955;SDS011;6038;52.276;10.530;2023-05-27T04:30:11;12.07;;;6.07;;
11955;SDS011;6038;52.276;10.530;2023-05-27T04:32:37;14.40;;;6.03;;
11955;SDS011;6038;52.276;10.530;2023-05-27T04:35:04;10.77;;;5.23;;
11955;SDS011;6038;52.276;10.530;2023-05-27T04:37:33;13.47;;;5.97;;
11955;SDS011;6038;52.276;10.530;2023-05-27T04:40:01;11.80;;;5.30;;
11955;SDS011;6038;52.276;10.530;2023-05-27T04:42:28;12.43;;;6.17;;
11955;SDS011;6038;52.276;10.530;2023-05-27T04:44:54;10.73;;;5.40;;
11955;SDS011;6038;52.276;10.530;2023-05-27T04:47:20;14.40;;;5.80;;
11955;SDS011;6038;52.276;10.530;2023-05-27T04:49:47;11.83;;;5.47;;
11955;SDS011;6038;52.276;10.530;2023-05-27T04:52:13;13.43;;;6.17;;
11955;SDS011;6038;52.276;10.530;2023-05-27T04:54:39;11.63;;;5.57;;
11955;SDS011;6038;52.276;10.530;2023-05-27T04:57:05;14.93;;;5.70;;
11955;SDS011;6038;52.276;10.530;2023-05-27T04:59:31;14.83;;;6.00;;
11955;SDS011;6038;52.276;10.530;2023-05-27T05:02:15;10.57;;;5.47;;
11955;SDS011;6038;52.276;10.530;2023-05-27T05:04:50;9.60;;;5.70;;
11955;SDS011;6038;52.276;10.530;2023-05-27T05:07:16;14.57;;;5.40;;
11955;SDS011;6038;52.276;10.530;2023-05-27T05:09:44;11.40;;;5.30;;
11955;SDS011;6038;52.276;10.530;2023-05-27T05:12:10;8.67;;;4.70;;
11955;SDS011;6038;52.276;10.530;2023-05-27T05:14:36;13.03;;;5.43;;
11955;SDS011;6038;52.276;10.530;2023-05-27T05:17:02;10.93;;;4.93;;
11955;SDS011;6038;52.276;10.530;2023-05-27T05:19:28;9.40;;;5.00;;
11955;SDS011;6038;52.276;10.530;2023-05-27T05:21:54;22.20;;;5.63;;
11955;SDS011;6038;52.276;10.530;2023-05-27T05:24:21;10.07;;;5.13;;
11955;SDS011;6038;52.276;10.530;2023-05-27T05:26:47;16.47;;;5.30;;
11955;SDS011;6038;52.276;10.530;2023-05-27T05:29:13;11.33;;;5.93;;
11955;SDS011;6038;52.276;10.530;2023-05-27T05:31:39;11.07;;;5.00;;
11955;SDS011;6038;52.276;10.530;2023-05-27T05:34:06;14.03;;;6.60;;
11955;SDS011;6038;52.276;10.530;2023-05-27T05:36:32;14.23;;;5.83;;
11955;SDS011;6038;52.276;10.530;2023-05-27T05:38:58;18.23;;;6.60;;
11955;SDS011;6038;52.276;10.530;2023-05-27T05:41:24;14.53;;;6.80;;
11955;SDS011;6038;52.276;10.530;2023-05-27T05:43:50;12.47;;;6.07;;
11955;SDS011;6038;52.276;10.530;2023-05-27T05:46:16;12.50;;;5.60;;
11955;SDS011;6038;52.276;10.530;2023-05-27T05:48:42;11.63;;;5.60;;
11955;SDS011;6038;52.276;10.530;2023-05-27T05:51:08;13.63;;;5.67;;
11955;SDS011;6038;52.276;10.530;2023-05-27T05:53:34;14.87;;;6.00;;
11955;SDS011;6038;52.276;10.530;2023-05-27T05:56:00;14.27;;;5.90;;
11955;SDS011;6038;52.276;10.530;2023-05-27T05:58:26;19.07;;;6.00;;
11955;SDS011;6038;52.276;10.530;2023-05-27T06:00:52;12.33;;;5.67;;
11955;SDS011;6038;52.276;10.530;2023-05-27T06:03:18;12.50;;;5.33;;
11955;SDS011;6038;52.276;10.530;2023-05-27T06:05:44;13.97;;;5.83;;
11955;SDS011;6038;52.276;10.530;2023-05-27T06:08:11;12.00;;;5.33;;
11955;SDS011;6038;52.276;10.530;2023-05-27T06:10:37;15.33;;;6.00;;
11955;SDS011;6038;52.276;10.530;2023-05-27T06:13:03;14.00;;;5.57;;
11955;SDS011;6038;52.276;10.530;2023-05-27T06:15:35;13.13;;;5.07;;
11955;SDS011;6038;52.276;10.530;2023-05-27T06:18:04;16.60;;;5.87;;
11955;SDS011;6038;52.276;10.530;2023-05-27T06:20:30;12.37;;;5.50;;
11955;SDS011;6038;52.276;10.530;2023-05-27T06:22:56;12.53;;;4.97;;
11955;SDS011;6038;52.276;10.530;2023-05-27T06:25:22;10.47;;;5.33;;
11955;SDS011;6038;52.276;10.530;2023-05-27T06:27:48;13.17;;;5.47;;
11955;SDS011;6038;52.276;10.530;2023-05-27T06:30:14;14.30;;;5.10;;
11955;SDS011;6038;52.276;10.530;2023-05-27T06:32:40;11.60;;;5.13;;
11955;SDS011;6038;52.276;10.530;2023-05-27T06:35:06;16.60;;;5.70;;
11955;SDS011;6038;52.276;10.530;2023-05-27T06:37:32;11.00;;;4.77;;
11955;SDS011;6038;52.276;10.530;2023-05-27T06:39:58;11.83;;;5.17;;
11955;SDS011;6038;52.276;10.530;2023-05-27T06:42:24;10.03;;;5.23;;
11955;SDS011;6038;52.276;10.530;2023-05-27T06:44:50;11.70;;;4.53;;
11955;SDS011;6038;52.276;10.530;2023-05-27T06:47:16;11.87;;;4.67;;
11955;SDS011;6038;52.276;10.530;2023-05-27T06:49:42;12.10;;;4.80;;
11955;SDS011;6038;52.276;10.530;2023-05-27T06:52:08;7.73;;;4.10;;
11955;SDS011;6038;52.276;10.530;2023-05-27T06:54:35;8.00;;;4.03;;
11955;SDS011;6038;52.276;10.530;2023-05-27T06:57:01;17.03;;;4.63;;
11955;SDS011;6038;52.276;10.530;2023-05-27T06:59:27;12.90;;;4.57;;
11955;SDS011;6038;52.276;10.530;2023-05-27T07:01:54;11.47;;;4.53;;
11955;SDS011;6038;52.276;10.530;2023-05-27T07:04:21;14.03;;;4.57;;
11955;SDS011;6038;52.276;10.530;2023-05-27T07:06:47;10.33;;;4.30;;
11955;SDS011;6038;52.276;10.530;2023-05-27T07:09:13;8.27;;;3.47;;
11955;SDS011;6038;52.276;10.530;2023-05-27T07:11:39;9.80;;;3.50;;
11955;SDS011;6038;52.276;10.530;2023-05-27T07:14:06;21.80;;;4.33;;
11955;SDS011;6038;52.276;10.530;2023-05-27T07:16:34;10.20;;;3.37;;
11955;SDS011;6038;52.276;10.530;2023-05-27T07:19:00;12.87;;;4.07;;
11955;SDS011;6038;52.276;10.530;2023-05-27T07:21:26;12.00;;;3.63;;
11955;SDS011;6038;52.276;10.530;2023-05-27T07:23:52;10.70;;;3.80;;
11955;SDS011;6038;52.276;10.530;2023-05-27T07:26:18;6.03;;;3.27;;
11955;SDS011;6038;52.276;10.530;2023-05-27T07:28:45;8.93;;;3.77;;
11955;SDS011;6038;52.276;10.530;2023-05-27T07:31:11;13.37;;;3.17;;
11955;SDS011;6038;52.276;10.530;2023-05-27T07:33:37;10.97;;;2.60;;
11955;SDS011;6038;52.276;10.530;2023-05-27T07:36:03;7.60;;;3.03;;
11955;SDS011;6038;52.276;10.530;2023-05-27T07:38:29;10.80;;;3.17;;
11955;SDS011;6038;52.276;10.530;2023-05-27T07:40:55;9.03;;;3.20;;
11955;SDS011;6038;52.276;10.530;2023-05-27T07:43:21;11.53;;;3.30;;
11955;SDS011;6038;52.276;10.530;2023-05-27T07:45:47;9.77;;;2.77;;
11955;SDS011;6038;52.276;10.530;2023-05-27T07:48:13;8.50;;;3.00;;
11955;SDS011;6038;52.276;10.530;2023-05-27T07:50:39;12.50;;;3.03;;
11955;SDS011;6038;52.276;10.530;2023-05-27T07:53:05;12.00;;;3.13;;
11955;SDS011;6038;52.276;10.530;2023-05-27T07:55:31;7.87;;;2.70;;
11955;SDS011;6038;52.276;10.530;2023-05-27T07:57:57;12.10;;;3.07;;
11955;SDS011;6038;52.276;10.530;2023-05-27T08:00:23;10.10;;;2.70;;
11955;SDS011;6038;52.276;10.530;2023-05-27T08:02:49;9.93;;;2.80;;
11955;SDS011;6038;52.276;10.530;2023-05-27T08:05:15;10.37;;;2.47;;
11955;SDS011;6038;52.276;10.530;2023-05-27T08:07:41;7.07;;;2.50;;
11955;SDS011;6038;52.276;10.530;2023-05-27T08:10:07;7.37;;;2.63;;
11955;SDS011;6038;52.276;10.530;2023-05-27T08:12:33;9.37;;;2.93;;
11955;SDS011;6038;52.276;10.530;2023-05-27T08:14:59;10.33;;;3.20;;
11955;SDS011;6038;52.276;10.530;2023-05-27T08:17:25;6.90;;;2.73;;
11955;SDS011;6038;52.276;10.530;2023-05-27T08:19:51;11.10;;;3.40;;
11955;SDS011;6038;52.276;10.530;2023-05-27T08:22:17;7.90;;;2.50;;
11955;SDS011;6038;52.276;10.530;2023-05-27T08:24:43;10.20;;;3.13;;
11955;SDS011;6038;52.276;10.530;2023-05-27T08:27:12;6.97;;;2.70;;
11955;SDS011;6038;52.276;10.530;2023-05-27T08:29:39;10.80;;;3.10;;
11955;SDS011;6038;52.276;10.530;2023-05-27T08:32:05;8.23;;;2.80;;
11955;SDS011;6038;52.276;10.530;2023-05-27T08:34:31;6.70;;;2.50;;
11955;SDS011;6038;52.276;10.530;2023-05-27T08:36:57;10.10;;;2.90;;
11955;SDS011;6038;52.276;10.530;2023-05-27T08:39:23;9.57;;;3.90;;
11955;SDS011;6038;52.276;10.530;2023-05-27T08:41:49;9.43;;;2.80;;
11955;SDS011;6038;52.276;10.530;2023-05-27T08:44:15;8.10;;;2.73;;
11955;SDS011;6038;52.276;10.530;2023-05-27T08:46:41;8.07;;;2.80;;
11955;SDS011;6038;52.276;10.530;2023-05-27T08:49:07;11.50;;;2.87;;
11955;SDS011;6038;52.276;10.530;2023-05-27T08:51:34;8.75;;;3.08;;
11955;SDS011;6038;52.276;10.530;2023-05-27T08:54:01;5.63;;;2.50;;
11955;SDS011;6038;52.276;10.530;2023-05-27T08:56:27;9.38;;;3.08;;
11955;SDS011;6038;52.276;10.530;2023-05-27T08:58:54;6.53;;;2.80;;
11955;SDS011;6038;52.276;10.530;2023-05-27T09:01:21;4.60;;;2.38;;
11955;SDS011;6038;52.276;10.530;2023-05-27T09:03:47;8.25;;;3.00;;
11955;SDS011;6038;52.276;10.530;2023-05-27T09:06:13;10.88;;;2.60;;
11955;SDS011;6038;52.276;10.530;2023-05-27T09:08:39;8.13;;;2.92;;
11955;SDS011;6038;52.276;10.530;2023-05-27T09:11:05;8.10;;;2.60;;
11955;SDS011;6038;52.276;10.530;2023-05-27T09:13:34;7.45;;;2.63;;
11955;SDS011;6038;52.276;10.530;2023-05-27T09:16:01;9.77;;;2.90;;
11955;SDS011;6038;52.276;10.530;2023-05-27T09:18:29;8.10;;;3.00;;
11955;SDS011;6038;52.276;10.530;2023-05-27T09:20:55;6.60;;;2.55;;
11955;SDS011;6038;52.276;10.530;2023-05-27T09:23:21;12.35;;;3.28;;
11955;SDS011;6038;52.276;10.530;2023-05-27T09:25:47;6.28;;;2.22;;
11955;SDS011;6038;52.276;10.530;2023-05-27T09:28:21;6.65;;;2.65;;
11955;SDS011;6038;52.276;10.530;2023-05-27T09:30:50;6.38;;;3.15;;
11955;SDS011;6038;52.276;10.530;2023-05-27T09:33:22;6.07;;;2.70;;
11955;SDS011;6038;52.276;10.530;2023-05-27T09:35:48;7.07;;;2.67;;
11955;SDS011;6038;52.276;10.530;2023-05-27T09:38:15;7.00;;;2.67;;
11955;SDS011;6038;52.276;10.530;2023-05-27T09:40:43;6.32;;;2.35;;
11955;SDS011;6038;52.276;10.530;2023-05-27T09:43:12;7.53;;;2.75;;
11955;SDS011;6038;52.276;10.530;2023-05-27T09:45:40;8.15;;;2.53;;
11955;SDS011;6038;52.276;10.530;2023-05-27T09:48:06;12.48;;;2.78;;
11955;SDS011;6038;52.276;10.530;2023-05-27T09:50:33;6.68;;;2.85;;
11955;SDS011;6038;52.276;10.530;2023-05-27T09:52:59;6.72;;;2.53;;
11955;SDS011;6038;52.276;10.530;2023-05-27T09:55:26;9.85;;;2.83;;
11955;SDS011;6038;52.276;10.530;2023-05-27T09:57:54;10.20;;;3.15;;
11955;SDS011;6038;52.276;10.530;2023-05-27T10:00:21;12.43;;;3.13;;
11955;SDS011;6038;52.276;10.530;2023-05-27T10:02:49;9.45;;;2.58;;
11955;SDS011;6038;52.276;10.530;2023-05-27T10:05:16;9.40;;;2.75;;
11955;SDS011;6038;52.276;10.530;2023-05-27T10:07:45;8.40;;;3.17;;
11955;SDS011;6038;52.276;10.530;2023-05-27T10:10:16;8.10;;;2.72;;
11955;SDS011;6038;52.276;10.530;2023-05-27T10:12:43;6.75;;;2.95;;
11955;SDS011;6038;52.276;10.530;2023-05-27T10:15:09;5.15;;;2.38;;
11955;SDS011;6038;52.276;10.530;2023-05-27T10:17:56;5.13;;;2.67;;
11955;SDS011;6038;52.276;10.530;2023-05-27T10:20:42;6.78;;;2.70;;
11955;SDS011;6038;52.276;10.530;2023-05-27T10:23:08;8.00;;;2.85;;
11955;SDS011;6038;52.276;10.530;2023-05-27T10:25:36;5.60;;;2.80;;
11955;SDS011;6038;52.276;10.530;2023-05-27T10:28:02;7.97;;;2.95;;
11955;SDS011;6038;52.276;10.530;2023-05-27T10:30:28;7.07;;;3.10;;
11955;SDS011;6038;52.276;10.530;2023-05-27T10:32:54;8.02;;;2.88;;
11955;SDS011;6038;52.276;10.530;2023-05-27T10:35:21;6.32;;;2.83;;
11955;SDS011;6038;52.276;10.530;2023-05-27T10:37:52;7.43;;;2.85;;
11955;SDS011;6038;52.276;10.530;2023-05-27T10:40:24;6.57;;;2.45;;
11955;SDS011;6038;52.276;10.530;2023-05-27T10:42:59;6.57;;;2.80;;
11955;SDS011;6038;52.276;10.530;2023-05-27T10:45:31;6.70;;;2.60;;
11955;SDS011;6038;52.276;10.530;2023-05-27T10:47:58;7.97;;;3.10;;
11955;SDS011;6038;52.276;10.530;2023-05-27T10:50:34;6.55;;;2.72;;
11955;SDS011;6038;52.276;10.530;2023-05-27T10:53:00;9.27;;;2.75;;
11955;SDS011;6038;52.276;10.530;2023-05-27T10:55:27;6.53;;;2.65;;
11955;SDS011;6038;52.276;10.530;2023-05-27T10:57:54;7.65;;;2.70;;
11955;SDS011;6038;52.276;10.530;2023-05-27T11:00:20;6.38;;;2.80;;
11955;SDS011;6038;52.276;10.530;2023-05-27T11:02:46;7.43;;;2.75;;
11955;SDS011;6038;52.276;10.530;2023-05-27T11:05:15;7.35;;;2.92;;
11955;SDS011;6038;52.276;10.530;2023-05-27T11:07:41;9.60;;;8.18;;
11955;SDS011;6038;52.276;10.530;2023-05-27T11:10:08;6.70;;;2.78;;
11955;SDS011;6038;52.276;10.530;2023-05-27T11:12:35;8.32;;;3.28;;
11955;SDS011;6038;52.276;10.530;2023-05-27T11:15:01;4.97;;;2.80;;
11955;SDS011;6038;52.276;10.530;2023-05-27T11:17:27;8.20;;;2.70;;
11955;SDS011;6038;52.276;10.530;2023-05-27T11:19:55;7.68;;;2.90;;
11955;SDS011;6038;52.276;10.530;2023-05-27T11:22:21;6.35;;;3.10;;
11955;SDS011;6038;52.276;10.530;2023-05-27T11:27:22;8.13;;;3.40;;
11955;SDS011;6038;52.276;10.530;2023-05-27T11:29:49;6.90;;;2.85;;
11955;SDS011;6038;52.276;10.530;2023-05-27T11:32:16;8.18;;;3.10;;
11955;SDS011;6038;52.276;10.530;2023-05-27T11:34:43;8.70;;;2.95;;
11955;SDS011;6038;52.276;10.530;2023-05-27T11:37:10;7.03;;;3.10;;
11955;SDS011;6038;52.276;10.530;2023-05-27T11:39:37;6.30;;;3.30;;
11955;SDS011;6038;52.276;10.530;2023-05-27T11:42:05;8.63;;;3.20;;
11955;SDS011;6038;52.276;10.530;2023-05-27T11:44:31;4.90;;;2.83;;
11955;SDS011;6038;52.276;10.530;2023-05-27T11:46:58;7.95;;;3.08;;
11955;SDS011;6038;52.276;10.530;2023-05-27T11:49:25;7.05;;;2.92;;
11955;SDS011;6038;52.276;10.530;2023-05-27T11:51:54;6.15;;;3.00;;
11955;SDS011;6038;52.276;10.530;2023-05-27T11:54:24;6.10;;;3.08;;
11955;SDS011;6038;52.276;10.530;2023-05-27T11:56:50;7.47;;;3.53;;
11955;SDS011;6038;52.276;10.530;2023-05-27T11:59:17;8.05;;;3.60;;
11955;SDS011;6038;52.276;10.530;2023-05-27T12:01:43;10.18;;;5.93;;
11955;SDS011;6038;52.276;10.530;2023-05-27T12:04:09;24.63;;;22.73;;
11955;SDS011;6038;52.276;10.530;2023-05-27T12:06:36;75.30;;;69.50;;
11955;SDS011;6038;52.276;10.530;2023-05-27T12:09:09;32.97;;;30.10;;
11955;SDS011;6038;52.276;10.530;2023-05-27T12:11:35;31.35;;;28.77;;
11955;SDS011;6038;52.276;10.530;2023-05-27T12:14:02;46.95;;;43.20;;
11955;SDS011;6038;52.276;10.530;2023-05-27T12:16:28;30.85;;;28.52;;
11955;SDS011;6038;52.276;10.530;2023-05-27T12:18:54;60.83;;;55.67;;
11955;SDS011;6038;52.276;10.530;2023-05-27T12:21:20;70.15;;;64.55;;
11955;SDS011;6038;52.276;10.530;2023-05-27T12:23:46;16.52;;;15.07;;
11955;SDS011;6038;52.276;10.530;2023-05-27T12:26:13;68.70;;;63.13;;
11955;SDS011;6038;52.276;10.530;2023-05-27T12:28:39;18.55;;;14.95;;
11955;SDS011;6038;52.276;10.530;2023-05-27T12:31:05;94.63;;;85.85;;
11955;SDS011;6038;52.276;10.530;2023-05-27T12:33:31;121.20;;;110.18;;
11955;SDS011;6038;52.276;10.530;2023-05-27T12:35:58;33.33;;;29.02;;
11955;SDS011;6038;52.276;10.530;2023-05-27T12:38:24;150.38;;;135.50;;
11955;SDS011;6038;52.276;10.530;2023-05-27T12:40:50;140.75;;;121.28;;
11955;SDS011;6038;52.276;10.530;2023-05-27T12:43:17;118.25;;;94.85;;
11955;SDS011;6038;52.276;10.530;2023-05-27T12:45:43;277.75;;;215.90;;
11955;SDS011;6038;52.276;10.530;2023-05-27T12:48:10;263.95;;;193.13;;
11955;SDS011;6038;52.276;10.530;2023-05-27T12:50:36;214.88;;;143.48;;
11955;SDS011;6038;52.276;10.530;2023-05-27T12:53:02;210.30;;;108.72;;
11955;SDS011;6038;52.276;10.530;2023-05-27T12:55:28;199.88;;;95.10;;
11955;SDS011;6038;52.276;10.530;2023-05-27T12:57:54;248.70;;;101.47;;
11955;SDS011;6038;52.276;10.530;2023-05-27T13:00:20;295.63;;;138.45;;
11955;SDS011;6038;52.276;10.530;2023-05-27T13:02:47;461.15;;;255.05;;
11955;SDS011;6038;52.276;10.530;2023-05-27T13:05:13;560.25;;;355.85;;
11955;SDS011;6038;52.276;10.530;2023-05-27T13:07:39;403.75;;;208.82;;
11955;SDS011;6038;52.276;10.530;2023-05-27T13:10:10;295.55;;;131.52;;
11955;SDS011;6038;52.276;10.530;2023-05-27T13:12:39;247.82;;;80.70;;
11955;SDS011;6038;52.276;10.530;2023-05-27T13:15:05;210.68;;;46.28;;
11955;SDS011;6038;52.276;10.530;2023-05-27T13:17:33;242.15;;;52.35;;
11955;SDS011;6038;52.276;10.530;2023-05-27T13:19:59;241.82;;;45.55;;
11955;SDS011;6038;52.276;10.530;2023-05-27T13:22:25;266.15;;;44.35;;
11955;SDS011;6038;52.276;10.530;2023-05-27T13:24:51;287.23;;;58.13;;
11955;SDS011;6038;52.276;10.530;2023-05-27T13:27:17;305.27;;;56.20;;
11955;SDS011;6038;52.276;10.530;2023-05-27T13:29:43;312.00;;;58.15;;
11955;SDS011;6038;52.276;10.530;2023-05-27T13:32:09;321.15;;;51.25;;
11955;SDS011;6038;52.276;10.530;2023-05-27T13:34:35;357.85;;;68.63;;
11955;SDS011;6038;52.276;10.530;2023-05-27T13:37:01;355.98;;;64.43;;
11955;SDS011;6038;52.276;10.530;2023-05-27T13:39:27;347.63;;;66.00;;
11955;SDS011;6038;52.276;10.530;2023-05-27T13:41:54;364.52;;;76.40;;
11955;SDS011;6038;52.276;10.530;2023-05-27T13:44:20;359.92;;;74.38;;
11955;SDS011;6038;52.276;10.530;2023-05-27T13:46:46;370.63;;;82.53;;
11955;SDS011;6038;52.276;10.530;2023-05-27T13:49:12;325.85;;;90.28;;
11955;SDS011;6038;52.276;10.530;2023-05-27T13:51:42;408.55;;;119.40;;
11955;SDS011;6038;52.276;10.530;2023-05-27T13:54:08;379.10;;;87.43;;
11955;SDS011;6038;52.276;10.530;2023-05-27T13:56:34;349.38;;;83.90;;
11955;SDS011;6038;52.276;10.530;2023-05-27T13:59:00;342.95;;;89.00;;
11955;SDS011;6038;52.276;10.530;2023-05-27T14:01:28;359.98;;;105.85;;
11955;SDS011;6038;52.276;10.530;2023-05-27T14:03:54;366.48;;;104.70;;
11955;SDS011;6038;52.276;10.530;2023-05-27T14:06:20;343.05;;;113.40;;
11955;SDS011;6038;52.276;10.530;2023-05-27T14:08:46;324.58;;;110.78;;
11955;SDS011;6038;52.276;10.530;2023-05-27T14:11:12;316.25;;;115.60;;
11955;SDS011;6038;52.276;10.530;2023-05-27T14:13:39;329.77;;;125.78;;
11955;SDS011;6038;52.276;10.530;2023-05-27T14:16:05;364.20;;;157.50;;
11955;SDS011;6038;52.276;10.530;2023-05-27T14:18:31;373.10;;;182.10;;
11955;SDS011;6038;52.276;10.530;2023-05-27T14:20:58;420.13;;;215.05;;
11955;SDS011;6038;52.276;10.530;2023-05-27T14:23:24;406.55;;;236.50;;
11955;SDS011;6038;52.276;10.530;2023-05-27T14:25:50;429.17;;;236.40;;
11955;SDS011;6038;52.276;10.530;2023-05-27T14:28:16;394.42;;;237.07;;
11955;SDS011;6038;52.276;10.530;2023-05-27T14:30:42;362.45;;;220.23;;
11955;SDS011;6038;52.276;10.530;2023-05-27T14:33:08;432.23;;;282.02;;
11955;SDS011;6038;52.276;10.530;2023-05-27T14:35:38;430.23;;;245.63;;
11955;SDS011;6038;52.276;10.530;2023-05-27T14:38:05;346.83;;;217.02;;
11955;SDS011;6038;52.276;10.530;2023-05-27T14:40:32;366.92;;;234.93;;